sensor_id;sensor_type;location;lat;lon;timestamp;P1;durP1;ratioP1;P2;durP2;ratioP2
21438;SDS011;10880;50.302;18.736;2022-12-13T00:01:33;11.03;;;5.97;;
21438;SDS011;10880;50.302;18.736;2022-12-13T00:04:00;14.13;;;6.63;;
21438;SDS011;10880;50.302;18.736;2022-12-13T00:06:29;11.30;;;5.43;;
21438;SDS011;10880;50.302;18.736;2022-12-13T00:08:57;7.20;;;4.53;;
21438;SDS011;10880;50.302;18.736;2022-12-13T00:11:24;7.57;;;4.30;;
21438;SDS011;10880;50.302;18.736;2022-12-13T00:13:50;9.70;;;5.13;;
21438;SDS011;10880;50.302;18.736;2022-12-13T00:16:18;10.00;;;5.33;;
21438;SDS011;10880;50.302;18.736;2022-12-13T00:18:48;13.70;;;5.70;;
21438;SDS011;10880;50.302;18.736;2022-12-13T00:21:16;18.93;;;7.10;;
21438;SDS011;10880;50.302;18.736;2022-12-13T00:23:44;15.13;;;6.50;;
21438;SDS011;10880;50.302;18.736;2022-12-13T00:26:12;12.00;;;6.00;;
21438;SDS011;10880;50.302;18.736;2022-12-13T00:28:40;16.83;;;6.43;;
21438;SDS011;10880;50.302;18.736;2022-12-13T00:31:08;17.20;;;5.73;;
21438;SDS011;10880;50.302;18.736;2022-12-13T00:33:38;12.73;;;5.43;;
21438;SDS011;10880;50.302;18.736;2022-12-13T00:36:05;10.40;;;4.67;;
21438;SDS011;10880;50.302;18.736;2022-12-13T00:38:32;9.70;;;5.10;;
21438;SDS011;10880;50.302;18.736;2022-12-13T00:41:08;13.13;;;6.10;;
21438;SDS011;10880;50.302;18.736;2022-12-13T00:43:37;10.97;;;4.90;;
21438;SDS011;10880;50.302;18.736;2022-12-13T00:46:05;7.70;;;4.70;;
21438;SDS011;10880;50.302;18.736;2022-12-13T00:48:40;6.27;;;3.80;;
21438;SDS011;10880;50.302;18.736;2022-12-13T00:51:07;9.60;;;5.50;;
21438;SDS011;10880;50.302;18.736;2022-12-13T00:53:35;8.00;;;4.77;;
21438;SDS011;10880;50.302;18.736;2022-12-13T00:56:02;9.73;;;5.17;;
21438;SDS011;10880;50.302;18.736;2022-12-13T00:58:30;8.57;;;5.00;;
21438;SDS011;10880;50.302;18.736;2022-12-13T01:01:06;10.87;;;5.57;;
21438;SDS011;10880;50.302;18.736;2022-12-13T01:03:34;8.43;;;4.83;;
21438;SDS011;10880;50.302;18.736;2022-12-13T01:06:01;7.67;;;4.60;;
21438;SDS011;10880;50.302;18.736;2022-12-13T01:08:34;7.13;;;4.20;;
21438;SDS011;10880;50.302;18.736;2022-12-13T01:11:01;8.37;;;4.70;;
21438;SDS011;10880;50.302;18.736;2022-12-13T01:13:29;7.33;;;4.43;;
21438;SDS011;10880;50.302;18.736;2022-12-13T01:15:55;8.90;;;4.50;;
21438;SDS011;10880;50.302;18.736;2022-12-13T01:18:22;5.20;;;3.73;;
21438;SDS011;10880;50.302;18.736;2022-12-13T01:21:02;6.80;;;3.77;;
21438;SDS011;10880;50.302;18.736;2022-12-13T01:23:36;5.20;;;3.60;;
21438;SDS011;10880;50.302;18.736;2022-12-13T01:26:05;6.90;;;3.90;;
21438;SDS011;10880;50.302;18.736;2022-12-13T01:28:34;7.80;;;4.03;;
21438;SDS011;10880;50.302;18.736;2022-12-13T01:31:02;7.07;;;3.90;;
21438;SDS011;10880;50.302;18.736;2022-12-13T01:33:30;6.77;;;4.10;;
21438;SDS011;10880;50.302;18.736;2022-12-13T01:36:02;4.30;;;3.40;;
21438;SDS011;10880;50.302;18.736;2022-12-13T01:38:30;5.83;;;3.70;;
21438;SDS011;10880;50.302;18.736;2022-12-13T01:40:57;5.27;;;3.40;;
21438;SDS011;10880;50.302;18.736;2022-12-13T01:46:02;8.03;;;4.10;;
21438;SDS011;10880;50.302;18.736;2022-12-13T01:48:30;6.47;;;3.77;;
21438;SDS011;10880;50.302;18.736;2022-12-13T01:51:01;4.90;;;3.57;;
21438;SDS011;10880;50.302;18.736;2022-12-13T01:53:31;5.73;;;3.60;;
21438;SDS011;10880;50.302;18.736;2022-12-13T01:56:01;6.50;;;3.90;;
21438;SDS011;10880;50.302;18.736;2022-12-13T01:58:32;4.67;;;3.23;;
21438;SDS011;10880;50.302;18.736;2022-12-13T02:01:01;4.97;;;3.70;;
21438;SDS011;10880;50.302;18.736;2022-12-13T02:03:28;4.50;;;3.00;;
21438;SDS011;10880;50.302;18.736;2022-12-13T02:08:27;5.87;;;3.67;;
21438;SDS011;10880;50.302;18.736;2022-12-13T02:10:54;6.23;;;3.40;;
21438;SDS011;10880;50.302;18.736;2022-12-13T02:13:22;5.07;;;3.50;;
21438;SDS011;10880;50.302;18.736;2022-12-13T02:35:05;4.97;;;3.30;;
21438;SDS011;10880;50.302;18.736;2022-12-13T02:40:33;4.27;;;3.00;;
21438;SDS011;10880;50.302;18.736;2022-12-13T02:43:11;4.37;;;3.20;;
21438;SDS011;10880;50.302;18.736;2022-12-13T02:46:01;3.80;;;2.67;;
21438;SDS011;10880;50.302;18.736;2022-12-13T02:48:31;4.50;;;2.93;;
21438;SDS011;10880;50.302;18.736;2022-12-13T02:51:02;3.77;;;2.77;;
21438;SDS011;10880;50.302;18.736;2022-12-13T02:53:32;5.30;;;3.27;;
21438;SDS011;10880;50.302;18.736;2022-12-13T02:55:58;4.93;;;3.43;;
21438;SDS011;10880;50.302;18.736;2022-12-13T02:58:26;4.57;;;3.03;;
21438;SDS011;10880;50.302;18.736;2022-12-13T03:03:50;4.57;;;2.60;;
21438;SDS011;10880;50.302;18.736;2022-12-13T03:17:50;4.97;;;2.83;;
21438;SDS011;10880;50.302;18.736;2022-12-13T03:20:23;4.60;;;2.90;;
21438;SDS011;10880;50.302;18.736;2022-12-13T03:22:52;3.93;;;2.60;;
21438;SDS011;10880;50.302;18.736;2022-12-13T03:25:20;3.40;;;2.80;;
21438;SDS011;10880;50.302;18.736;2022-12-13T03:27:48;3.73;;;2.40;;
21438;SDS011;10880;50.302;18.736;2022-12-13T03:30:14;4.20;;;2.90;;
21438;SDS011;10880;50.302;18.736;2022-12-13T03:32:41;3.80;;;2.60;;
21438;SDS011;10880;50.302;18.736;2022-12-13T03:35:09;2.60;;;2.40;;
21438;SDS011;10880;50.302;18.736;2022-12-13T03:37:35;4.13;;;2.77;;
21438;SDS011;10880;50.302;18.736;2022-12-13T03:40:01;4.33;;;3.17;;
21438;SDS011;10880;50.302;18.736;2022-12-13T03:42:28;5.07;;;3.17;;
21438;SDS011;10880;50.302;18.736;2022-12-13T03:44:55;4.60;;;3.00;;
21438;SDS011;10880;50.302;18.736;2022-12-13T03:47:21;5.33;;;3.13;;
21438;SDS011;10880;50.302;18.736;2022-12-13T03:49:48;4.23;;;2.80;;
21438;SDS011;10880;50.302;18.736;2022-12-13T03:52:14;3.37;;;2.47;;
21438;SDS011;10880;50.302;18.736;2022-12-13T03:54:41;4.23;;;2.53;;
21438;SDS011;10880;50.302;18.736;2022-12-13T03:57:07;3.73;;;2.50;;
21438;SDS011;10880;50.302;18.736;2022-12-13T03:59:34;4.20;;;2.87;;
21438;SDS011;10880;50.302;18.736;2022-12-13T04:02:00;4.43;;;3.20;;
21438;SDS011;10880;50.302;18.736;2022-12-13T04:04:28;3.73;;;2.87;;
21438;SDS011;10880;50.302;18.736;2022-12-13T04:06:54;6.87;;;3.60;;
21438;SDS011;10880;50.302;18.736;2022-12-13T04:09:22;5.93;;;3.50;;
21438;SDS011;10880;50.302;18.736;2022-12-13T04:11:49;5.57;;;3.47;;
21438;SDS011;10880;50.302;18.736;2022-12-13T04:14:34;4.87;;;3.20;;
21438;SDS011;10880;50.302;18.736;2022-12-13T04:17:00;6.07;;;3.33;;
21438;SDS011;10880;50.302;18.736;2022-12-13T04:19:26;4.23;;;2.90;;
21438;SDS011;10880;50.302;18.736;2022-12-13T04:21:53;4.93;;;3.10;;
21438;SDS011;10880;50.302;18.736;2022-12-13T04:24:20;5.60;;;2.93;;
21438;SDS011;10880;50.302;18.736;2022-12-13T04:26:47;2.90;;;2.47;;
21438;SDS011;10880;50.302;18.736;2022-12-13T04:29:14;5.27;;;3.03;;
21438;SDS011;10880;50.302;18.736;2022-12-13T04:31:41;6.40;;;3.40;;
21438;SDS011;10880;50.302;18.736;2022-12-13T04:34:08;5.07;;;3.40;;
21438;SDS011;10880;50.302;18.736;2022-12-13T04:36:34;6.57;;;3.87;;
21438;SDS011;10880;50.302;18.736;2022-12-13T04:39:02;7.00;;;3.97;;
21438;SDS011;10880;50.302;18.736;2022-12-13T04:41:34;7.30;;;4.00;;
21438;SDS011;10880;50.302;18.736;2022-12-13T04:44:05;6.47;;;3.57;;
21438;SDS011;10880;50.302;18.736;2022-12-13T04:46:33;5.17;;;3.53;;
21438;SDS011;10880;50.302;18.736;2022-12-13T04:48:59;5.47;;;3.10;;
21438;SDS011;10880;50.302;18.736;2022-12-13T04:51:26;5.07;;;2.83;;
21438;SDS011;10880;50.302;18.736;2022-12-13T04:53:52;7.20;;;3.60;;
21438;SDS011;10880;50.302;18.736;2022-12-13T04:56:19;5.70;;;3.10;;
21438;SDS011;10880;50.302;18.736;2022-12-13T04:58:45;5.90;;;3.20;;
21438;SDS011;10880;50.302;18.736;2022-12-13T05:01:12;3.90;;;2.93;;
21438;SDS011;10880;50.302;18.736;2022-12-13T05:03:38;5.00;;;3.07;;
21438;SDS011;10880;50.302;18.736;2022-12-13T05:06:09;5.30;;;3.37;;
21438;SDS011;10880;50.302;18.736;2022-12-13T05:08:38;5.97;;;3.97;;
21438;SDS011;10880;50.302;18.736;2022-12-13T05:11:06;6.60;;;4.07;;
21438;SDS011;10880;50.302;18.736;2022-12-13T05:13:33;7.73;;;4.10;;
21438;SDS011;10880;50.302;18.736;2022-12-13T05:16:01;5.70;;;3.37;;
21438;SDS011;10880;50.302;18.736;2022-12-13T05:18:30;4.33;;;2.93;;
21438;SDS011;10880;50.302;18.736;2022-12-13T05:21:00;3.50;;;2.60;;
21438;SDS011;10880;50.302;18.736;2022-12-13T05:23:28;2.97;;;2.57;;
21438;SDS011;10880;50.302;18.736;2022-12-13T05:25:55;3.13;;;2.40;;
21438;SDS011;10880;50.302;18.736;2022-12-13T05:28:22;4.03;;;2.70;;
21438;SDS011;10880;50.302;18.736;2022-12-13T05:30:51;4.63;;;2.90;;
21438;SDS011;10880;50.302;18.736;2022-12-13T05:33:18;4.77;;;2.70;;
21438;SDS011;10880;50.302;18.736;2022-12-13T05:35:45;4.07;;;3.00;;
21438;SDS011;10880;50.302;18.736;2022-12-13T05:38:12;5.50;;;3.60;;
21438;SDS011;10880;50.302;18.736;2022-12-13T05:40:38;5.67;;;3.73;;
21438;SDS011;10880;50.302;18.736;2022-12-13T05:43:05;5.00;;;3.07;;
21438;SDS011;10880;50.302;18.736;2022-12-13T05:45:31;5.17;;;3.20;;
21438;SDS011;10880;50.302;18.736;2022-12-13T05:47:58;5.13;;;3.20;;
21438;SDS011;10880;50.302;18.736;2022-12-13T05:50:24;4.77;;;3.07;;
21438;SDS011;10880;50.302;18.736;2022-12-13T05:52:51;5.63;;;3.70;;
21438;SDS011;10880;50.302;18.736;2022-12-13T05:55:17;6.13;;;3.53;;
21438;SDS011;10880;50.302;18.736;2022-12-13T05:57:44;5.40;;;3.27;;
21438;SDS011;10880;50.302;18.736;2022-12-13T06:00:11;4.47;;;3.20;;
21438;SDS011;10880;50.302;18.736;2022-12-13T06:02:42;6.60;;;3.33;;
21438;SDS011;10880;50.302;18.736;2022-12-13T06:05:09;5.63;;;3.50;;
21438;SDS011;10880;50.302;18.736;2022-12-13T06:07:37;5.47;;;3.50;;
21438;SDS011;10880;50.302;18.736;2022-12-13T06:10:06;5.50;;;2.83;;
21438;SDS011;10880;50.302;18.736;2022-12-13T06:12:34;3.97;;;3.10;;
21438;SDS011;10880;50.302;18.736;2022-12-13T06:15:03;5.80;;;3.50;;
21438;SDS011;10880;50.302;18.736;2022-12-13T06:17:31;4.77;;;3.03;;
21438;SDS011;10880;50.302;18.736;2022-12-13T06:19:58;5.77;;;3.10;;
21438;SDS011;10880;50.302;18.736;2022-12-13T06:22:25;6.30;;;3.60;;
21438;SDS011;10880;50.302;18.736;2022-12-13T06:24:52;4.20;;;2.80;;
21438;SDS011;10880;50.302;18.736;2022-12-13T06:27:20;4.67;;;2.70;;
21438;SDS011;10880;50.302;18.736;2022-12-13T06:29:46;4.83;;;3.13;;
21438;SDS011;10880;50.302;18.736;2022-12-13T06:32:13;5.93;;;3.17;;
21438;SDS011;10880;50.302;18.736;2022-12-13T06:34:39;4.33;;;2.93;;
21438;SDS011;10880;50.302;18.736;2022-12-13T06:37:06;3.83;;;2.50;;
21438;SDS011;10880;50.302;18.736;2022-12-13T06:39:35;5.43;;;3.27;;
21438;SDS011;10880;50.302;18.736;2022-12-13T06:42:02;4.33;;;3.10;;
21438;SDS011;10880;50.302;18.736;2022-12-13T06:44:34;5.47;;;3.50;;
21438;SDS011;10880;50.302;18.736;2022-12-13T06:47:03;6.63;;;3.70;;
21438;SDS011;10880;50.302;18.736;2022-12-13T06:49:30;7.37;;;4.30;;
21438;SDS011;10880;50.302;18.736;2022-12-13T06:51:56;5.43;;;3.63;;
21438;SDS011;10880;50.302;18.736;2022-12-13T06:54:22;7.93;;;4.27;;
21438;SDS011;10880;50.302;18.736;2022-12-13T06:56:49;12.80;;;6.20;;
21438;SDS011;10880;50.302;18.736;2022-12-13T06:59:15;7.13;;;4.70;;
21438;SDS011;10880;50.302;18.736;2022-12-13T07:01:42;7.20;;;4.27;;
21438;SDS011;10880;50.302;18.736;2022-12-13T07:04:10;7.83;;;4.60;;
21438;SDS011;10880;50.302;18.736;2022-12-13T07:06:37;5.07;;;3.10;;
21438;SDS011;10880;50.302;18.736;2022-12-13T07:09:06;5.47;;;3.20;;
21438;SDS011;10880;50.302;18.736;2022-12-13T07:11:32;4.97;;;3.30;;
21438;SDS011;10880;50.302;18.736;2022-12-13T07:14:00;3.53;;;2.80;;
21438;SDS011;10880;50.302;18.736;2022-12-13T07:16:26;3.97;;;2.73;;
21438;SDS011;10880;50.302;18.736;2022-12-13T07:18:54;3.13;;;2.50;;
21438;SDS011;10880;50.302;18.736;2022-12-13T07:21:28;3.73;;;2.60;;
21438;SDS011;10880;50.302;18.736;2022-12-13T07:23:55;4.43;;;2.90;;
21438;SDS011;10880;50.302;18.736;2022-12-13T07:26:22;5.83;;;3.47;;
21438;SDS011;10880;50.302;18.736;2022-12-13T07:28:52;4.77;;;3.00;;
21438;SDS011;10880;50.302;18.736;2022-12-13T07:31:19;4.70;;;3.50;;
21438;SDS011;10880;50.302;18.736;2022-12-13T07:33:48;6.43;;;3.30;;
21438;SDS011;10880;50.302;18.736;2022-12-13T07:36:18;5.17;;;3.10;;
21438;SDS011;10880;50.302;18.736;2022-12-13T07:38:53;4.80;;;3.10;;
21438;SDS011;10880;50.302;18.736;2022-12-13T07:41:20;4.93;;;3.30;;
21438;SDS011;10880;50.302;18.736;2022-12-13T07:43:48;8.43;;;4.27;;
21438;SDS011;10880;50.302;18.736;2022-12-13T07:46:14;8.37;;;4.80;;
21438;SDS011;10880;50.302;18.736;2022-12-13T07:48:41;6.93;;;4.03;;
21438;SDS011;10880;50.302;18.736;2022-12-13T07:51:08;7.53;;;4.40;;
21438;SDS011;10880;50.302;18.736;2022-12-13T07:53:36;6.87;;;3.73;;
21438;SDS011;10880;50.302;18.736;2022-12-13T07:56:04;6.10;;;3.90;;
21438;SDS011;10880;50.302;18.736;2022-12-13T07:58:32;7.23;;;4.40;;
21438;SDS011;10880;50.302;18.736;2022-12-13T08:01:00;5.33;;;3.83;;
21438;SDS011;10880;50.302;18.736;2022-12-13T08:03:30;6.07;;;3.90;;
21438;SDS011;10880;50.302;18.736;2022-12-13T08:06:04;8.43;;;4.70;;
21438;SDS011;10880;50.302;18.736;2022-12-13T08:08:35;7.70;;;4.20;;
21438;SDS011;10880;50.302;18.736;2022-12-13T08:11:07;8.77;;;5.13;;
21438;SDS011;10880;50.302;18.736;2022-12-13T08:13:35;9.17;;;5.07;;
21438;SDS011;10880;50.302;18.736;2022-12-13T08:16:04;8.50;;;5.20;;
21438;SDS011;10880;50.302;18.736;2022-12-13T08:18:32;10.00;;;5.43;;
21438;SDS011;10880;50.302;18.736;2022-12-13T08:21:02;8.80;;;5.73;;
21438;SDS011;10880;50.302;18.736;2022-12-13T08:23:30;7.43;;;4.80;;
21438;SDS011;10880;50.302;18.736;2022-12-13T08:25:58;6.77;;;4.47;;
21438;SDS011;10880;50.302;18.736;2022-12-13T08:28:26;6.57;;;4.50;;
21438;SDS011;10880;50.302;18.736;2022-12-13T08:30:53;7.10;;;4.90;;
21438;SDS011;10880;50.302;18.736;2022-12-13T08:33:20;6.90;;;4.10;;
21438;SDS011;10880;50.302;18.736;2022-12-13T08:35:47;6.63;;;4.07;;
21438;SDS011;10880;50.302;18.736;2022-12-13T08:38:13;7.53;;;4.40;;
21438;SDS011;10880;50.302;18.736;2022-12-13T08:40:40;6.17;;;3.80;;
21438;SDS011;10880;50.302;18.736;2022-12-13T08:43:06;6.73;;;4.50;;
21438;SDS011;10880;50.302;18.736;2022-12-13T08:45:33;8.07;;;5.13;;
21438;SDS011;10880;50.302;18.736;2022-12-13T08:48:00;7.30;;;4.73;;
21438;SDS011;10880;50.302;18.736;2022-12-13T08:50:27;8.63;;;5.13;;
21438;SDS011;10880;50.302;18.736;2022-12-13T08:52:54;10.27;;;6.20;;
21438;SDS011;10880;50.302;18.736;2022-12-13T08:55:21;16.37;;;8.03;;
21438;SDS011;10880;50.302;18.736;2022-12-13T08:57:48;14.93;;;6.53;;
21438;SDS011;10880;50.302;18.736;2022-12-13T09:00:18;9.43;;;4.87;;
21438;SDS011;10880;50.302;18.736;2022-12-13T09:02:45;8.93;;;4.73;;
21438;SDS011;10880;50.302;18.736;2022-12-13T09:05:11;7.67;;;3.90;;
21438;SDS011;10880;50.302;18.736;2022-12-13T09:07:38;5.80;;;3.60;;
21438;SDS011;10880;50.302;18.736;2022-12-13T09:10:06;10.17;;;5.33;;
21438;SDS011;10880;50.302;18.736;2022-12-13T09:12:33;9.70;;;4.90;;
21438;SDS011;10880;50.302;18.736;2022-12-13T09:15:00;8.27;;;4.33;;
21438;SDS011;10880;50.302;18.736;2022-12-13T09:17:28;20.07;;;10.60;;
21438;SDS011;10880;50.302;18.736;2022-12-13T09:19:55;21.77;;;11.00;;
21438;SDS011;10880;50.302;18.736;2022-12-13T09:22:22;18.60;;;9.30;;
21438;SDS011;10880;50.302;18.736;2022-12-13T09:24:49;19.33;;;9.73;;
21438;SDS011;10880;50.302;18.736;2022-12-13T09:27:15;12.07;;;6.30;;
21438;SDS011;10880;50.302;18.736;2022-12-13T09:29:42;18.33;;;9.47;;
21438;SDS011;10880;50.302;18.736;2022-12-13T09:32:08;22.73;;;10.17;;
21438;SDS011;10880;50.302;18.736;2022-12-13T09:34:35;19.73;;;9.97;;
21438;SDS011;10880;50.302;18.736;2022-12-13T09:37:01;23.87;;;13.20;;
21438;SDS011;10880;50.302;18.736;2022-12-13T09:39:28;28.77;;;14.03;;
21438;SDS011;10880;50.302;18.736;2022-12-13T09:41:55;25.37;;;12.17;;
21438;SDS011;10880;50.302;18.736;2022-12-13T09:44:23;20.03;;;10.43;;
21438;SDS011;10880;50.302;18.736;2022-12-13T09:46:56;16.07;;;8.23;;
21438;SDS011;10880;50.302;18.736;2022-12-13T09:49:29;16.67;;;8.00;;
21438;SDS011;10880;50.302;18.736;2022-12-13T09:52:05;11.50;;;6.20;;
21438;SDS011;10880;50.302;18.736;2022-12-13T09:54:36;12.17;;;6.23;;
21438;SDS011;10880;50.302;18.736;2022-12-13T09:57:08;15.30;;;7.17;;
21438;SDS011;10880;50.302;18.736;2022-12-13T09:59:44;25.83;;;10.90;;
21438;SDS011;10880;50.302;18.736;2022-12-13T10:02:16;16.57;;;8.43;;
21438;SDS011;10880;50.302;18.736;2022-12-13T10:04:47;12.23;;;6.27;;
21438;SDS011;10880;50.302;18.736;2022-12-13T10:07:17;11.20;;;5.50;;
21438;SDS011;10880;50.302;18.736;2022-12-13T10:09:47;13.97;;;7.77;;
21438;SDS011;10880;50.302;18.736;2022-12-13T10:12:27;24.27;;;10.00;;
21438;SDS011;10880;50.302;18.736;2022-12-13T10:14:55;16.27;;;7.80;;
21438;SDS011;10880;50.302;18.736;2022-12-13T10:17:27;10.13;;;5.60;;
21438;SDS011;10880;50.302;18.736;2022-12-13T10:20:01;39.80;;;17.57;;
21438;SDS011;10880;50.302;18.736;2022-12-13T10:22:29;25.70;;;12.90;;
21438;SDS011;10880;50.302;18.736;2022-12-13T10:24:59;17.87;;;8.90;;
21438;SDS011;10880;50.302;18.736;2022-12-13T10:27:35;11.63;;;5.70;;
21438;SDS011;10880;50.302;18.736;2022-12-13T10:32:45;11.50;;;5.97;;
21438;SDS011;10880;50.302;18.736;2022-12-13T10:38:01;6.70;;;4.00;;
21438;SDS011;10880;50.302;18.736;2022-12-13T10:40:45;8.10;;;4.37;;
21438;SDS011;10880;50.302;18.736;2022-12-13T10:43:24;13.00;;;6.77;;
21438;SDS011;10880;50.302;18.736;2022-12-13T10:45:56;10.20;;;5.43;;
21438;SDS011;10880;50.302;18.736;2022-12-13T10:48:39;8.20;;;4.30;;
21438;SDS011;10880;50.302;18.736;2022-12-13T10:51:14;5.10;;;3.33;;
21438;SDS011;10880;50.302;18.736;2022-12-13T10:56:13;5.10;;;3.10;;
21438;SDS011;10880;50.302;18.736;2022-12-13T10:58:42;4.83;;;3.37;;
21438;SDS011;10880;50.302;18.736;2022-12-13T11:06:45;5.67;;;3.83;;
21438;SDS011;10880;50.302;18.736;2022-12-13T11:09:13;6.13;;;3.43;;
21438;SDS011;10880;50.302;18.736;2022-12-13T11:11:51;5.93;;;3.17;;
21438;SDS011;10880;50.302;18.736;2022-12-13T11:14:19;5.87;;;3.17;;
21438;SDS011;10880;50.302;18.736;2022-12-13T11:16:54;8.50;;;4.70;;
21438;SDS011;10880;50.302;18.736;2022-12-13T11:19:24;4.93;;;3.47;;
21438;SDS011;10880;50.302;18.736;2022-12-13T11:21:59;6.00;;;3.50;;
21438;SDS011;10880;50.302;18.736;2022-12-13T11:24:30;5.77;;;3.63;;
21438;SDS011;10880;50.302;18.736;2022-12-13T11:27:23;7.27;;;4.13;;
21438;SDS011;10880;50.302;18.736;2022-12-13T11:35:20;6.63;;;3.70;;
21438;SDS011;10880;50.302;18.736;2022-12-13T11:41:01;4.53;;;3.23;;
21438;SDS011;10880;50.302;18.736;2022-12-13T11:43:43;5.47;;;3.57;;
21438;SDS011;10880;50.302;18.736;2022-12-13T11:46:42;4.77;;;3.37;;
21438;SDS011;10880;50.302;18.736;2022-12-13T11:49:13;7.10;;;3.97;;
21438;SDS011;10880;50.302;18.736;2022-12-13T11:56:45;7.73;;;3.40;;
21438;SDS011;10880;50.302;18.736;2022-12-13T12:02:15;5.53;;;3.30;;
21438;SDS011;10880;50.302;18.736;2022-12-13T12:04:54;4.90;;;3.30;;
21438;SDS011;10880;50.302;18.736;2022-12-13T12:07:27;6.57;;;4.03;;
21438;SDS011;10880;50.302;18.736;2022-12-13T12:12:59;6.40;;;3.43;;
21438;SDS011;10880;50.302;18.736;2022-12-13T12:16:20;4.50;;;3.00;;
21438;SDS011;10880;50.302;18.736;2022-12-13T12:18:48;4.70;;;3.00;;
21438;SDS011;10880;50.302;18.736;2022-12-13T12:27:10;6.17;;;4.00;;
21438;SDS011;10880;50.302;18.736;2022-12-13T12:30:07;6.53;;;3.60;;
21438;SDS011;10880;50.302;18.736;2022-12-13T12:41:07;6.93;;;4.30;;
21438;SDS011;10880;50.302;18.736;2022-12-13T12:54:44;4.80;;;3.87;;
21438;SDS011;10880;50.302;18.736;2022-12-13T13:00:12;5.50;;;3.50;;
21438;SDS011;10880;50.302;18.736;2022-12-13T13:05:35;5.77;;;3.73;;
21438;SDS011;10880;50.302;18.736;2022-12-13T13:10:38;7.97;;;3.53;;
21438;SDS011;10880;50.302;18.736;2022-12-13T13:16:00;4.37;;;3.10;;
21438;SDS011;10880;50.302;18.736;2022-12-13T13:18:44;5.07;;;3.23;;
21438;SDS011;10880;50.302;18.736;2022-12-13T13:26:38;7.97;;;5.67;;
21438;SDS011;10880;50.302;18.736;2022-12-13T13:32:04;10.87;;;6.00;;
21438;SDS011;10880;50.302;18.736;2022-12-13T13:34:47;9.07;;;5.47;;
21438;SDS011;10880;50.302;18.736;2022-12-13T13:54:18;9.77;;;5.43;;
21438;SDS011;10880;50.302;18.736;2022-12-13T14:08:28;7.90;;;4.63;;
21438;SDS011;10880;50.302;18.736;2022-12-13T14:22:13;14.13;;;6.47;;
21438;SDS011;10880;50.302;18.736;2022-12-13T14:27:41;12.60;;;6.90;;
21438;SDS011;10880;50.302;18.736;2022-12-13T14:30:16;12.77;;;6.93;;
21438;SDS011;10880;50.302;18.736;2022-12-13T14:32:53;11.50;;;6.00;;
21438;SDS011;10880;50.302;18.736;2022-12-13T14:35:28;11.77;;;6.30;;
21438;SDS011;10880;50.302;18.736;2022-12-13T14:37:57;14.70;;;7.00;;
21438;SDS011;10880;50.302;18.736;2022-12-13T14:43:02;12.60;;;6.00;;
21438;SDS011;10880;50.302;18.736;2022-12-13T14:48:05;9.30;;;5.00;;
21438;SDS011;10880;50.302;18.736;2022-12-13T14:50:37;9.57;;;4.93;;
21438;SDS011;10880;50.302;18.736;2022-12-13T14:53:06;11.93;;;6.27;;
21438;SDS011;10880;50.302;18.736;2022-12-13T14:55:46;13.77;;;6.37;;
21438;SDS011;10880;50.302;18.736;2022-12-13T14:58:38;10.03;;;5.47;;
21438;SDS011;10880;50.302;18.736;2022-12-13T15:01:30;13.00;;;7.00;;
21438;SDS011;10880;50.302;18.736;2022-12-13T15:09:54;14.53;;;6.97;;
21438;SDS011;10880;50.302;18.736;2022-12-13T15:12:27;18.77;;;8.20;;
21438;SDS011;10880;50.302;18.736;2022-12-13T15:17:33;17.27;;;8.20;;
21438;SDS011;10880;50.302;18.736;2022-12-13T15:20:26;24.83;;;11.37;;
21438;SDS011;10880;50.302;18.736;2022-12-13T15:23:00;23.53;;;11.37;;
21438;SDS011;10880;50.302;18.736;2022-12-13T15:25:35;26.13;;;11.40;;
21438;SDS011;10880;50.302;18.736;2022-12-13T15:28:03;19.57;;;9.73;;
21438;SDS011;10880;50.302;18.736;2022-12-13T15:30:32;16.17;;;7.77;;
21438;SDS011;10880;50.302;18.736;2022-12-13T15:33:07;12.17;;;6.43;;
21438;SDS011;10880;50.302;18.736;2022-12-13T15:35:43;17.13;;;8.03;;
21438;SDS011;10880;50.302;18.736;2022-12-13T15:38:13;15.90;;;7.37;;
21438;SDS011;10880;50.302;18.736;2022-12-13T15:40:46;18.67;;;7.47;;
21438;SDS011;10880;50.302;18.736;2022-12-13T15:43:15;21.57;;;8.50;;
21438;SDS011;10880;50.302;18.736;2022-12-13T15:45:45;26.00;;;11.37;;
21438;SDS011;10880;50.302;18.736;2022-12-13T15:51:11;24.67;;;9.63;;
21438;SDS011;10880;50.302;18.736;2022-12-13T15:53:42;21.40;;;8.30;;
21438;SDS011;10880;50.302;18.736;2022-12-13T15:59:02;41.00;;;15.70;;
21438;SDS011;10880;50.302;18.736;2022-12-13T16:01:30;34.20;;;12.93;;
21438;SDS011;10880;50.302;18.736;2022-12-13T16:03:59;33.83;;;12.80;;
21438;SDS011;10880;50.302;18.736;2022-12-13T16:06:30;41.57;;;16.17;;
21438;SDS011;10880;50.302;18.736;2022-12-13T16:08:59;28.33;;;11.77;;
21438;SDS011;10880;50.302;18.736;2022-12-13T16:11:29;40.80;;;16.83;;
21438;SDS011;10880;50.302;18.736;2022-12-13T16:17:01;90.00;;;30.93;;
21438;SDS011;10880;50.302;18.736;2022-12-13T16:19:41;87.83;;;31.97;;
21438;SDS011;10880;50.302;18.736;2022-12-13T16:22:08;99.20;;;35.07;;
21438;SDS011;10880;50.302;18.736;2022-12-13T16:24:35;97.10;;;34.17;;
21438;SDS011;10880;50.302;18.736;2022-12-13T16:27:01;82.50;;;29.27;;
21438;SDS011;10880;50.302;18.736;2022-12-13T16:29:28;73.00;;;26.53;;
21438;SDS011;10880;50.302;18.736;2022-12-13T16:31:54;76.43;;;27.57;;
21438;SDS011;10880;50.302;18.736;2022-12-13T16:34:22;82.97;;;30.83;;
21438;SDS011;10880;50.302;18.736;2022-12-13T16:36:48;50.97;;;21.27;;
21438;SDS011;10880;50.302;18.736;2022-12-13T16:39:15;61.13;;;23.83;;
21438;SDS011;10880;50.302;18.736;2022-12-13T16:41:42;70.47;;;27.70;;
21438;SDS011;10880;50.302;18.736;2022-12-13T16:44:17;71.13;;;26.57;;
21438;SDS011;10880;50.302;18.736;2022-12-13T16:46:59;76.57;;;27.97;;
21438;SDS011;10880;50.302;18.736;2022-12-13T16:49:26;84.20;;;31.97;;
21438;SDS011;10880;50.302;18.736;2022-12-13T16:51:54;89.17;;;31.73;;
21438;SDS011;10880;50.302;18.736;2022-12-13T16:54:22;92.77;;;33.77;;
21438;SDS011;10880;50.302;18.736;2022-12-13T16:56:50;82.90;;;29.23;;
21438;SDS011;10880;50.302;18.736;2022-12-13T16:59:19;60.40;;;20.73;;
21438;SDS011;10880;50.302;18.736;2022-12-13T17:01:47;40.80;;;15.13;;
21438;SDS011;10880;50.302;18.736;2022-12-13T17:04:15;35.53;;;12.87;;
21438;SDS011;10880;50.302;18.736;2022-12-13T17:06:43;40.70;;;13.57;;
21438;SDS011;10880;50.302;18.736;2022-12-13T17:09:10;96.70;;;30.80;;
21438;SDS011;10880;50.302;18.736;2022-12-13T17:11:37;68.90;;;23.87;;
21438;SDS011;10880;50.302;18.736;2022-12-13T17:14:03;54.67;;;18.47;;
21438;SDS011;10880;50.302;18.736;2022-12-13T17:16:30;88.83;;;31.13;;
21438;SDS011;10880;50.302;18.736;2022-12-13T17:18:57;115.90;;;37.53;;
21438;SDS011;10880;50.302;18.736;2022-12-13T17:21:25;110.63;;;37.30;;
21438;SDS011;10880;50.302;18.736;2022-12-13T17:23:56;121.53;;;38.90;;
21438;SDS011;10880;50.302;18.736;2022-12-13T17:26:24;140.10;;;43.07;;
21438;SDS011;10880;50.302;18.736;2022-12-13T17:28:52;86.03;;;29.00;;
21438;SDS011;10880;50.302;18.736;2022-12-13T17:31:19;82.07;;;28.50;;
21438;SDS011;10880;50.302;18.736;2022-12-13T17:33:46;113.37;;;36.73;;
21438;SDS011;10880;50.302;18.736;2022-12-13T17:36:13;136.50;;;42.50;;
21438;SDS011;10880;50.302;18.736;2022-12-13T17:38:42;123.67;;;43.03;;
21438;SDS011;10880;50.302;18.736;2022-12-13T17:41:11;141.93;;;44.97;;
21438;SDS011;10880;50.302;18.736;2022-12-13T17:43:38;135.93;;;44.67;;
21438;SDS011;10880;50.302;18.736;2022-12-13T17:46:06;131.37;;;40.40;;
21438;SDS011;10880;50.302;18.736;2022-12-13T17:48:36;121.77;;;39.03;;